Brasil Novo, Brazil
Current Conditions -  °F | °C
As of 3:00 PM on Monday 26 Jan 2015 (Local Time) from SBHT Reporting Station
Broken Clouds Broken Clouds  
Wind Chill: 91°   Ceiling: 3000
Heat Index: 100°   Visibility: 6mi
Dew Point: 73°   Wind: 8mph
Humidity: 55%   Direction: 100°E
Pressure: 29.85"   Gusts: NA
Location:  3.3°S, 53.54°W
Report Text: SBHT 261800Z 10007KT 9999 BKN030 SCT100 33/23 Q1011
Loading
Personal Weather Stations






























Interactive Weather Map New forecast layout! Learn more

10-Day Weather Forecast

Advertisements
Track Severe Weather on mobile